Time;durP1;ratioP1;P1;durP2;ratioP2;P2;SDS_P1;SDS_P2;PMS_P1;PMS_P2;Temp;Humidity;BMP_temperature;BMP_pressure;BME280_temperature;BME280_humidity;BME280_pressure;Samples;Min_cycle;Max_cycle;Signal;HPM_P1;HPM_P2
2022/11/16 00:01:05;;;;;;;153.67;27.37;;;4.00;99.90;;;;;;5134168;27;20205;-78
2022/11/16 00:03:35;;;;;;;51.47;24.93;;;3.90;99.90;;;;;;5134122;27;20232;-78
2022/11/16 00:06:05;;;;;;;48.10;23.83;;;3.90;99.90;;;;;;5134376;27;20569;-72
2022/11/16 00:08:37;;;;;;;67.17;25.90;;;3.90;99.90;;;;;;5133756;27;20211;-76
2022/11/16 00:11:07;;;;;;;69.53;26.03;;;3.90;99.90;;;;;;5133948;27;20639;-77
2022/11/16 00:13:38;;;;;;;67.17;26.00;;;3.80;99.90;;;;;;5133904;27;20212;-78
2022/11/16 00:16:08;;;;;;;91.47;26.30;;;3.70;99.90;;;;;;5122994;27;20212;-80
2022/11/16 00:18:37;;;;;;;81.93;26.93;;;3.70;99.90;;;;;;5112943;27;20217;-79
2022/11/16 00:21:06;;;;;;;51.60;27.37;;;3.70;99.90;;;;;;5133662;27;20233;-78
2022/11/16 00:23:38;;;;;;;84.40;28.80;;;3.60;99.90;;;;;;5134283;27;20219;-79
2022/11/16 00:26:09;;;;;;;70.33;27.77;;;3.60;99.90;;;;;;5134133;27;20213;-78
2022/11/16 00:28:44;;;;;;;69.00;29.27;;;3.60;99.90;;;;;;5134136;27;20198;-79
2022/11/16 00:31:15;;;;;;;47.93;29.37;;;3.60;99.90;;;;;;5133991;27;20216;-79
2022/11/16 00:33:50;;;;;;;70.67;29.37;;;3.60;99.90;;;;;;5133341;27;20209;-81
2022/11/16 00:36:18;;;;;;;87.87;29.93;;;3.70;99.90;;;;;;5133831;27;20216;-79
2022/11/16 00:38:46;;;;;;;63.27;30.63;;;3.60;99.90;;;;;;5133309;27;20695;-80
2022/11/16 00:41:14;;;;;;;50.43;29.13;;;3.70;99.90;;;;;;5134088;27;20209;-77
2022/11/16 00:43:42;;;;;;;50.63;28.97;;;3.70;99.90;;;;;;5133308;27;20228;-77
2022/11/16 00:46:13;;;;;;;46.00;28.03;;;3.70;99.90;;;;;;5134127;27;20216;-78
2022/11/16 00:48:42;;;;;;;57.07;29.27;;;3.70;99.90;;;;;;5133699;27;20205;-78
2022/11/16 00:51:11;;;;;;;42.03;27.07;;;3.60;99.90;;;;;;5133946;27;20205;-80
2022/11/16 00:53:42;;;;;;;45.70;28.40;;;3.70;99.90;;;;;;5133901;27;20232;-78
2022/11/16 00:56:12;;;;;;;42.10;29.57;;;3.70;99.90;;;;;;5127505;27;20226;-76
2022/11/16 00:58:40;;;;;;;41.13;28.53;;;3.70;99.90;;;;;;5113255;28;20186;-79
2022/11/16 01:01:12;;;;;;;39.60;28.63;;;3.70;99.90;;;;;;5113208;28;20580;-76
2022/11/16 01:03:40;;;;;;;42.80;29.43;;;3.80;99.90;;;;;;5113343;28;20220;-77
2022/11/16 01:06:11;;;;;;;42.03;29.13;;;3.80;99.90;;;;;;5113177;28;20214;-79
2022/11/16 01:08:41;;;;;;;41.13;28.40;;;3.90;99.90;;;;;;5113482;28;20187;-75
2022/11/16 01:13:58;;;;;;;40.03;28.03;;;4.00;99.90;;;;;;5113240;28;20225;-79
2022/11/16 01:16:29;;;;;;;39.53;27.47;;;3.90;99.90;;;;;;5113179;28;20229;-80
2022/11/16 01:18:57;;;;;;;39.37;27.70;;;4.00;99.90;;;;;;5112528;28;20205;-78
2022/11/16 01:21:28;;;;;;;37.60;26.43;;;4.00;99.90;;;;;;5113017;28;20582;-78
2022/11/16 01:23:57;;;;;;;36.60;26.67;;;4.00;99.90;;;;;;5112346;28;20566;-77
2022/11/16 01:26:25;;;;;;;37.67;26.43;;;4.00;99.90;;;;;;5112984;28;20206;-78
2022/11/16 01:28:55;;;;;;;39.83;28.20;;;4.00;99.90;;;;;;5112564;28;20190;-74
2022/11/16 01:31:25;;;;;;;35.93;26.87;;;4.00;99.90;;;;;;5112730;28;20206;-77
2022/11/16 01:33:56;;;;;;;35.80;25.30;;;4.10;99.90;;;;;;5112691;28;20826;-78
2022/11/16 01:36:24;;;;;;;35.57;26.37;;;4.10;99.90;;;;;;5130588;28;20201;-78
2022/11/16 01:38:54;;;;;;;35.37;25.67;;;4.10;99.90;;;;;;5133198;28;20210;-77
2022/11/16 01:41:27;;;;;;;38.63;26.53;;;4.00;99.90;;;;;;5133464;28;20209;-79
2022/11/16 01:43:58;;;;;;;35.30;25.13;;;4.20;99.90;;;;;;5113782;27;20222;-76
2022/11/16 01:46:27;;;;;;;33.53;24.37;;;4.10;99.90;;;;;;5128707;27;20631;-79
2022/11/16 01:49:02;;;;;;;34.73;25.83;;;4.10;99.90;;;;;;5137143;27;20205;-77
2022/11/16 01:51:33;;;;;;;34.23;24.87;;;4.10;99.90;;;;;;5137089;27;20522;-76
2022/11/16 01:54:09;;;;;;;34.93;25.83;;;4.20;99.90;;;;;;5136761;27;20231;-76
2022/11/16 01:56:41;;;;;;;35.40;25.87;;;4.20;99.90;;;;;;5137741;27;20204;-73
2022/11/16 01:59:13;;;;;;;42.13;28.03;;;4.10;99.90;;;;;;5138701;27;20193;-77
2022/11/16 02:01:41;;;;;;;41.27;26.87;;;4.10;99.90;;;;;;5130822;27;20206;-76
2022/11/16 02:04:11;;;;;;;40.00;26.83;;;4.10;99.90;;;;;;5118664;28;20226;-75
2022/11/16 02:06:54;;;;;;;45.17;27.80;;;4.10;99.90;;;;;;5118022;28;20214;-76
2022/11/16 02:09:53;;;;;;;40.03;28.23;;;4.10;99.90;;;;;;5120022;28;20191;-74
2022/11/16 02:13:02;;;;;;;40.83;26.43;;;4.10;99.90;;;;;;5121876;28;20190;-73
2022/11/16 02:15:37;;;;;;;40.20;25.83;;;4.10;99.90;;;;;;5103473;28;20206;-77
2022/11/16 02:18:21;;;;;;;33.87;25.43;;;4.00;99.90;;;;;;5115930;28;20190;-79
2022/11/16 02:21:01;;;;;;;36.27;25.50;;;4.00;99.90;;;;;;5115627;28;20240;-78
2022/11/16 02:23:48;;;;;;;36.17;25.00;;;3.90;99.90;;;;;;5115816;28;20632;-78
2022/11/16 02:26:44;;;;;;;33.70;24.70;;;3.90;99.90;;;;;;5115390;28;20206;-77
2022/11/16 02:29:20;;;;;;;34.30;24.43;;;3.90;99.90;;;;;;5106388;28;20214;-78
2022/11/16 02:31:53;;;;;;;35.53;24.77;;;3.90;99.90;;;;;;5115902;28;20190;-80
2022/11/16 02:34:24;;;;;;;35.83;24.77;;;3.90;99.90;;;;;;5127469;27;20219;-79
2022/11/16 02:36:56;;;;;;;35.27;25.23;;;3.90;99.90;;;;;;5136298;27;20542;-77
2022/11/16 02:39:27;;;;;;;35.87;24.93;;;3.90;99.90;;;;;;5135880;27;20594;-76
2022/11/16 02:41:57;;;;;;;34.97;24.93;;;4.00;99.90;;;;;;5136063;27;20189;-76
2022/11/16 02:44:30;;;;;;;33.43;24.80;;;4.00;99.90;;;;;;5119908;27;20576;-74
2022/11/16 02:47:02;;;;;;;33.90;24.97;;;4.00;99.90;;;;;;5116235;28;20202;-78
2022/11/16 02:49:33;;;;;;;35.30;24.23;;;4.00;99.90;;;;;;5115291;28;20220;-78
2022/11/16 02:52:01;;;;;;;36.73;24.70;;;3.90;99.90;;;;;;5115692;28;20599;-79
2022/11/16 02:54:32;;;;;;;33.93;24.07;;;3.90;99.90;;;;;;5114790;28;20300;-79
2022/11/16 02:57:42;;;;;;;34.57;24.60;;;4.00;99.90;;;;;;5114832;28;20577;-75
2022/11/16 03:00:24;;;;;;;33.57;24.53;;;3.90;99.90;;;;;;5115159;28;20213;-80
2022/11/16 03:03:09;;;;;;;34.10;24.50;;;4.00;99.90;;;;;;5115353;28;20202;-78
2022/11/16 03:05:41;;;;;;;37.67;26.07;;;4.00;99.90;;;;;;5115071;28;20214;-76
2022/11/16 03:08:16;;;;;;;35.30;25.43;;;4.00;99.90;;;;;;5115202;28;20210;-75
2022/11/16 03:13:37;;;;;;;34.80;25.13;;;4.00;99.90;;;;;;5114979;28;20644;-76
2022/11/16 03:16:15;;;;;;;38.87;26.20;;;4.10;99.90;;;;;;5115500;28;20202;-77
2022/11/16 03:18:45;;;;;;;35.60;25.80;;;4.10;99.90;;;;;;5115171;28;20562;-79
2022/11/16 03:21:21;;;;;;;35.87;25.17;;;4.20;99.90;;;;;;5114637;28;20226;-79
2022/11/16 03:23:51;;;;;;;35.90;24.40;;;4.10;99.90;;;;;;5114992;28;20194;-76
2022/11/16 03:26:26;;;;;;;33.07;24.27;;;4.20;99.90;;;;;;5115012;28;20209;-78
2022/11/16 03:28:59;;;;;;;33.00;23.87;;;4.20;99.90;;;;;;5114527;28;20205;-79
2022/11/16 03:31:34;;;;;;;32.33;23.50;;;4.20;99.90;;;;;;5114772;28;20195;-79
2022/11/16 03:34:09;;;;;;;32.23;23.63;;;4.20;99.90;;;;;;5114698;28;20194;-77
2022/11/16 03:36:43;;;;;;;32.23;22.90;;;4.20;99.90;;;;;;5114930;28;20266;-79
2022/11/16 03:39:16;;;;;;;34.23;22.40;;;4.20;99.90;;;;;;5114396;28;20216;-78
2022/11/16 03:41:48;;;;;;;34.17;22.73;;;4.30;99.90;;;;;;5114357;28;20197;-81
2022/11/16 03:44:19;;;;;;;31.93;22.60;;;4.30;99.90;;;;;;5114270;28;20201;-79
2022/11/16 03:46:49;;;;;;;29.77;22.67;;;4.30;99.90;;;;;;5114490;28;20559;-78
2022/11/16 03:49:24;;;;;;;31.87;23.13;;;4.30;99.90;;;;;;5114170;28;20212;-79
2022/11/16 03:52:01;;;;;;;35.77;22.53;;;4.30;99.90;;;;;;5114323;28;20667;-79
2022/11/16 03:54:29;;;;;;;30.63;21.77;;;4.30;99.90;;;;;;5114205;28;20210;-76
2022/11/16 03:56:57;;;;;;;26.80;21.37;;;4.30;99.90;;;;;;5114184;28;20220;-79
2022/11/16 03:59:25;;;;;;;30.87;21.40;;;4.30;99.90;;;;;;5113841;28;20671;-79
2022/11/16 04:01:57;;;;;;;33.90;21.73;;;4.40;99.90;;;;;;5114525;28;20574;-77
2022/11/16 04:24:13;;;;;;;28.03;22.03;;;4.40;99.90;;;;;;5113994;28;20549;-75
2022/11/16 04:29:29;;;;;;;28.00;20.83;;;4.50;99.90;;;;;;5113790;28;20194;-78
2022/11/16 04:37:51;;;;;;;26.50;19.87;;;4.50;99.90;;;;;;5134040;27;20197;-77
2022/11/16 04:40:21;;;;;;;28.83;20.17;;;4.60;99.90;;;;;;5133693;27;20663;-73
2022/11/16 04:42:53;;;;;;;24.67;20.30;;;4.60;99.90;;;;;;5128719;27;20206;-74
2022/11/16 04:48:08;;;;;;;25.33;20.57;;;4.60;99.90;;;;;;5081499;28;20213;-78
2022/11/16 04:50:39;;;;;;;26.87;19.67;;;4.50;99.90;;;;;;5112791;28;20704;-78
2022/11/16 04:53:07;;;;;;;26.50;20.50;;;4.60;99.90;;;;;;5113873;28;20214;-79
2022/11/16 04:55:37;;;;;;;25.43;20.23;;;4.60;99.90;;;;;;5113689;28;20206;-78
2022/11/16 04:58:06;;;;;;;28.10;20.63;;;4.60;99.90;;;;;;5114087;28;20210;-77
2022/11/16 05:00:34;;;;;;;31.00;20.97;;;4.60;99.90;;;;;;5113971;28;20209;-79
2022/11/16 05:03:04;;;;;;;26.70;20.73;;;4.60;99.90;;;;;;5114311;28;20206;-78
2022/11/16 05:05:39;;;;;;;27.63;21.13;;;4.60;99.90;;;;;;5116102;28;20245;-77
2022/11/16 05:08:10;;;;;;;28.20;21.93;;;4.50;99.90;;;;;;5114951;28;20190;-77
2022/11/16 05:10:38;;;;;;;28.93;21.87;;;4.50;99.90;;;;;;5112158;28;20211;-78
2022/11/16 05:13:09;;;;;;;27.53;21.77;;;4.50;99.90;;;;;;5113028;28;20210;-75
2022/11/16 05:15:40;;;;;;;27.63;20.60;;;4.60;99.90;;;;;;5112706;28;20189;-78
2022/11/16 05:18:11;;;;;;;28.13;20.77;;;4.60;99.90;;;;;;5112300;28;20206;-78
2022/11/16 05:26:11;;;;;;;28.23;21.13;;;4.60;99.90;;;;;;5112554;28;20233;-77
2022/11/16 05:28:40;;;;;;;29.93;21.37;;;4.60;99.90;;;;;;5112379;28;20202;-78
2022/11/16 05:31:08;;;;;;;29.90;22.40;;;4.60;99.90;;;;;;5133208;28;20564;-76
2022/11/16 05:33:35;;;;;;;30.67;23.20;;;4.60;99.90;;;;;;5132981;28;20205;-78
2022/11/16 05:36:05;;;;;;;32.33;22.97;;;4.70;99.90;;;;;;5133103;28;20205;-78
2022/11/16 05:38:35;;;;;;;32.17;23.07;;;4.60;99.90;;;;;;5132875;28;20216;-77
2022/11/16 05:41:03;;;;;;;28.40;22.17;;;4.60;99.90;;;;;;5133332;28;20603;-77
2022/11/16 05:43:31;;;;;;;26.67;20.47;;;4.70;99.90;;;;;;5133196;28;20212;-79
2022/11/16 05:45:59;;;;;;;27.67;20.97;;;4.70;99.90;;;;;;5133040;28;20224;-74
2022/11/16 05:48:29;;;;;;;29.10;22.17;;;4.60;99.90;;;;;;5133823;28;20569;-79
2022/11/16 05:50:59;;;;;;;28.73;22.10;;;4.60;99.90;;;;;;5134076;28;20205;-77
2022/11/16 05:53:29;;;;;;;27.47;20.30;;;4.60;99.90;;;;;;5133039;28;20582;-77
2022/11/16 05:55:57;;;;;;;26.60;20.27;;;4.60;99.90;;;;;;5126665;28;20211;-78
2022/11/16 05:58:25;;;;;;;31.77;21.83;;;4.60;99.90;;;;;;5105175;28;20217;-78
2022/11/16 06:00:56;;;;;;;26.10;20.50;;;4.60;99.90;;;;;;5113787;28;20228;-80
2022/11/16 06:03:27;;;;;;;26.13;19.67;;;4.60;99.90;;;;;;5113068;28;20217;-78
2022/11/16 06:05:58;;;;;;;25.47;20.00;;;4.60;99.90;;;;;;5112890;28;20218;-77
2022/11/16 06:08:28;;;;;;;24.43;19.80;;;4.70;99.90;;;;;;5112955;28;20221;-78
2022/11/16 06:10:56;;;;;;;25.77;19.53;;;4.70;99.90;;;;;;5112293;28;20370;-74
2022/11/16 06:13:24;;;;;;;26.47;19.67;;;4.70;99.90;;;;;;5112659;28;20213;-74
2022/11/16 06:15:52;;;;;;;26.10;19.87;;;4.80;99.90;;;;;;5112524;28;20533;-76
2022/11/16 06:18:20;;;;;;;27.73;20.93;;;4.80;99.90;;;;;;5112265;28;20202;-74
2022/11/16 06:20:49;;;;;;;26.70;21.00;;;4.70;99.90;;;;;;5112417;28;20580;-78
2022/11/16 06:23:17;;;;;;;26.93;20.93;;;4.80;99.90;;;;;;5113288;28;20217;-77
2022/11/16 06:25:46;;;;;;;25.90;20.77;;;4.80;99.90;;;;;;5119259;27;20233;-78
2022/11/16 06:28:15;;;;;;;21.73;18.23;;;4.80;99.90;;;;;;5122426;27;20205;-78
2022/11/16 06:30:43;;;;;;;23.63;18.87;;;4.80;99.90;;;;;;5115514;27;20209;-79
2022/11/16 06:33:14;;;;;;;23.33;18.30;;;4.80;99.90;;;;;;5122610;27;20323;-78
2022/11/16 06:35:44;;;;;;;22.23;17.93;;;4.80;99.90;;;;;;5114783;28;20402;-78
2022/11/16 06:38:17;;;;;;;20.67;16.93;;;4.80;99.90;;;;;;5116096;27;20202;-78
2022/11/16 06:40:50;;;;;;;22.73;17.87;;;4.80;99.90;;;;;;5118486;27;20213;-79
2022/11/16 06:43:19;;;;;;;23.83;17.90;;;4.80;99.90;;;;;;5114220;28;20714;-77
2022/11/16 06:45:49;;;;;;;21.10;17.50;;;4.80;99.90;;;;;;5114518;28;20565;-78
2022/11/16 06:48:18;;;;;;;21.73;17.57;;;4.80;99.90;;;;;;5115264;28;20202;-79
2022/11/16 06:50:48;;;;;;;21.93;18.00;;;4.90;99.90;;;;;;5114353;28;20222;-73
2022/11/16 06:53:16;;;;;;;23.33;19.57;;;4.80;99.90;;;;;;5114472;27;20214;-78
2022/11/16 06:55:44;;;;;;;21.53;18.43;;;4.70;99.90;;;;;;5114290;28;20589;-78
2022/11/16 06:58:14;;;;;;;22.10;18.73;;;4.80;99.90;;;;;;5114739;28;20213;-79
2022/11/16 07:00:44;;;;;;;23.20;18.80;;;4.80;99.90;;;;;;5115142;28;20571;-73
2022/11/16 07:03:12;;;;;;;24.23;18.67;;;4.80;99.90;;;;;;5114752;28;20683;-78
2022/11/16 07:05:43;;;;;;;23.70;19.60;;;4.80;99.90;;;;;;5114771;28;20220;-76
2022/11/16 07:08:12;;;;;;;25.60;19.23;;;4.80;99.90;;;;;;5115099;28;20236;-78
2022/11/16 07:10:40;;;;;;;22.17;17.33;;;4.90;99.90;;;;;;5114086;27;20594;-76
2022/11/16 07:13:08;;;;;;;21.37;17.77;;;4.80;99.90;;;;;;5113881;28;20221;-77
2022/11/16 07:15:44;;;;;;;22.27;18.17;;;4.80;99.90;;;;;;5113652;28;20206;-77
2022/11/16 07:18:15;;;;;;;22.63;18.77;;;4.80;99.90;;;;;;5114819;28;20187;-78
2022/11/16 07:20:43;;;;;;;22.30;18.60;;;4.90;99.90;;;;;;5113231;28;20778;-78
2022/11/16 07:23:15;;;;;;;22.17;17.73;;;4.80;99.90;;;;;;5113455;27;20237;-76
2022/11/16 07:25:46;;;;;;;21.40;17.47;;;4.90;99.90;;;;;;5113325;27;20213;-78
2022/11/16 07:28:14;;;;;;;21.83;18.20;;;4.90;99.90;;;;;;5128420;27;20214;-78
2022/11/16 07:30:45;;;;;;;19.73;17.43;;;4.90;99.90;;;;;;5129388;27;20205;-78
2022/11/16 07:33:13;;;;;;;20.43;16.77;;;5.00;99.90;;;;;;5134264;27;20258;-76
2022/11/16 07:35:44;;;;;;;19.73;16.63;;;5.00;99.90;;;;;;5121476;27;20300;-75
2022/11/16 07:38:12;;;;;;;18.07;16.10;;;4.90;99.90;;;;;;5114678;28;20217;-79
2022/11/16 07:40:45;;;;;;;20.13;17.23;;;5.00;99.90;;;;;;5118315;27;20664;-78
2022/11/16 07:43:13;;;;;;;19.70;16.90;;;5.00;99.90;;;;;;5112648;27;20209;-79
2022/11/16 07:45:44;;;;;;;19.43;16.57;;;5.10;99.90;;;;;;5113935;28;20289;-79
2022/11/16 07:48:21;;;;;;;18.73;16.13;;;5.10;99.90;;;;;;5112278;27;20226;-78
2022/11/16 07:50:52;;;;;;;20.73;16.23;;;5.10;99.90;;;;;;5112696;27;20675;-78
2022/11/16 07:53:23;;;;;;;18.93;15.90;;;5.10;99.90;;;;;;5113505;28;20582;-78
2022/11/16 07:55:56;;;;;;;19.23;16.10;;;5.10;99.90;;;;;;5128369;27;20229;-78
2022/11/16 07:58:25;;;;;;;18.33;16.33;;;5.20;99.90;;;;;;5112823;28;20668;-77
2022/11/16 08:00:54;;;;;;;19.57;16.47;;;5.20;99.90;;;;;;5113432;28;20214;-78
2022/11/16 08:03:22;;;;;;;18.70;16.33;;;5.20;99.90;;;;;;5121150;27;20216;-78
2022/11/16 08:06:02;;;;;;;20.20;16.37;;;5.20;99.90;;;;;;5133311;27;20209;-77
2022/11/16 08:08:33;;;;;;;19.40;16.50;;;5.20;99.90;;;;;;5119373;27;20314;-75
2022/11/16 08:11:08;;;;;;;19.30;15.93;;;5.30;99.90;;;;;;5113352;28;20190;-77
2022/11/16 08:13:37;;;;;;;21.17;17.10;;;5.30;99.90;;;;;;5122152;28;20214;-77
2022/11/16 08:16:13;;;;;;;18.90;16.23;;;5.40;99.90;;;;;;5115346;28;20212;-78
2022/11/16 08:18:43;;;;;;;19.47;16.47;;;5.30;99.90;;;;;;5113305;27;20292;-79
2022/11/16 08:21:25;;;;;;;18.80;16.40;;;5.40;99.90;;;;;;5132909;27;20579;-77
2022/11/16 08:23:53;;;;;;;20.77;17.63;;;5.40;99.90;;;;;;5117975;27;20296;-78
2022/11/16 08:26:26;;;;;;;20.77;16.67;;;5.40;99.90;;;;;;5110633;27;20202;-78
2022/11/16 08:28:56;;;;;;;19.17;16.77;;;5.40;99.90;;;;;;5116312;27;20202;-78
2022/11/16 08:31:29;;;;;;;21.63;17.30;;;5.50;99.90;;;;;;5127963;27;20202;-78
2022/11/16 08:33:59;;;;;;;19.27;16.67;;;5.50;99.90;;;;;;5112679;28;20191;-76
2022/11/16 08:36:29;;;;;;;18.33;15.90;;;5.50;99.90;;;;;;5119402;27;20210;-76
2022/11/16 08:38:58;;;;;;;19.93;16.17;;;5.60;99.90;;;;;;5112163;27;20573;-75
2022/11/16 08:41:26;;;;;;;20.97;17.23;;;5.70;99.90;;;;;;5115610;27;20216;-76
2022/11/16 08:44:04;;;;;;;23.43;17.40;;;5.80;99.90;;;;;;5112312;28;20191;-75
2022/11/16 08:46:34;;;;;;;20.47;16.33;;;5.70;99.90;;;;;;5111779;27;20208;-79
2022/11/16 08:49:03;;;;;;;21.60;17.60;;;5.80;99.90;;;;;;5111946;28;20525;-77
2022/11/16 08:51:31;;;;;;;21.80;17.63;;;5.80;99.90;;;;;;5112718;27;20593;-79
2022/11/16 08:54:04;;;;;;;20.83;17.70;;;5.80;99.90;;;;;;5132713;27;20312;-76
2022/11/16 08:56:32;;;;;;;22.77;18.47;;;5.80;99.90;;;;;;5113791;28;20284;-80
2022/11/16 08:59:01;;;;;;;22.07;17.93;;;5.90;99.90;;;;;;5111678;27;20210;-79
2022/11/16 09:01:35;;;;;;;21.47;17.93;;;5.90;99.90;;;;;;5111873;27;20918;-78
2022/11/16 09:04:04;;;;;;;20.53;17.67;;;6.00;99.90;;;;;;5112214;28;20665;-79
2022/11/16 09:06:32;;;;;;;21.33;17.97;;;6.00;99.90;;;;;;5111585;27;20631;-77
2022/11/16 09:09:00;;;;;;;20.63;17.93;;;6.10;99.90;;;;;;5131891;27;20236;-77
2022/11/16 09:11:28;;;;;;;20.83;17.90;;;6.20;99.90;;;;;;5132618;27;20193;-78
2022/11/16 09:13:59;;;;;;;21.27;18.10;;;6.20;99.90;;;;;;5132568;27;20536;-79
2022/11/16 09:16:27;;;;;;;24.87;18.67;;;6.20;99.90;;;;;;5133524;27;20229;-79
2022/11/16 09:18:57;;;;;;;22.60;18.57;;;6.30;99.90;;;;;;5132450;28;20685;-78
2022/11/16 09:21:26;;;;;;;22.27;17.53;;;6.30;99.90;;;;;;5104519;28;20225;-79
2022/11/16 09:23:55;;;;;;;23.13;18.23;;;6.40;99.90;;;;;;5118907;28;20205;-78
2022/11/16 09:26:26;;;;;;;22.37;18.33;;;6.40;99.90;;;;;;5112462;27;20668;-76
2022/11/16 09:28:59;;;;;;;24.23;19.77;;;6.50;99.90;;;;;;5111787;28;20206;-79
2022/11/16 09:31:28;;;;;;;24.07;19.00;;;6.50;99.90;;;;;;5111381;27;20206;-78
2022/11/16 09:33:58;;;;;;;22.07;18.53;;;6.60;99.90;;;;;;5132662;27;20211;-78
2022/11/16 09:36:27;;;;;;;22.70;18.70;;;6.50;99.90;;;;;;5153639;27;20211;-77
2022/11/16 09:38:57;;;;;;;23.33;19.27;;;6.60;99.90;;;;;;5154129;27;20252;-76
2022/11/16 09:41:58;;;;;;;23.80;19.67;;;6.60;99.90;;;;;;5136563;27;20616;-75
2022/11/16 09:44:48;;;;;;;24.93;20.77;;;6.60;99.90;;;;;;5135340;28;20190;-72
2022/11/16 09:47:20;;;;;;;23.77;20.40;;;6.60;99.90;;;;;;5134441;28;20229;-77
2022/11/16 09:49:53;;;;;;;28.27;22.67;;;6.70;99.90;;;;;;5134923;28;20292;-77
2022/11/16 09:52:33;;;;;;;24.20;20.83;;;6.60;99.90;;;;;;5120801;27;20631;-78
2022/11/16 09:55:19;;;;;;;25.70;22.57;;;6.70;99.90;;;;;;5114201;27;20201;-79
2022/11/16 09:57:53;;;;;;;24.27;20.97;;;6.70;99.90;;;;;;5111733;28;20214;-74
2022/11/16 10:00:24;;;;;;;25.07;20.33;;;6.70;99.90;;;;;;5110445;27;20206;-76
2022/11/16 10:03:02;;;;;;;25.10;20.67;;;6.80;99.90;;;;;;5111679;28;20549;-78
2022/11/16 10:05:36;;;;;;;23.10;20.60;;;6.80;99.90;;;;;;5114072;28;20233;-79
2022/11/16 10:08:13;;;;;;;27.17;20.60;;;6.90;99.90;;;;;;5114080;27;20559;-78
2022/11/16 10:10:50;;;;;;;25.17;20.10;;;7.00;99.90;;;;;;5114670;27;20209;-77
2022/11/16 10:13:34;;;;;;;26.67;21.23;;;7.00;99.90;;;;;;5115403;28;20194;-78
2022/11/16 10:16:10;;;;;;;24.57;19.27;;;7.20;99.90;;;;;;5116612;28;20244;-79
2022/11/16 10:18:47;;;;;;;24.63;20.60;;;7.20;99.90;;;;;;5124146;27;20205;-77
2022/11/16 10:21:33;;;;;;;23.43;19.37;;;7.30;99.90;;;;;;5126078;27;20316;-78
2022/11/16 10:24:30;;;;;;;23.47;18.60;;;7.40;99.90;;;;;;5137893;27;20209;-77
2022/11/16 10:27:28;;;;;;;22.57;18.37;;;7.50;99.90;;;;;;5119382;27;20202;-74
2022/11/16 10:30:07;;;;;;;24.00;18.70;;;7.50;99.90;;;;;;5135123;27;20205;-75
2022/11/16 10:32:38;;;;;;;23.43;19.10;;;7.70;99.90;;;;;;5122598;27;20201;-77
2022/11/16 10:35:15;;;;;;;20.67;17.57;;;7.70;99.90;;;;;;5115594;28;20294;-74
2022/11/16 10:37:48;;;;;;;23.27;18.87;;;7.90;99.90;;;;;;5115873;28;20575;-78
2022/11/16 10:40:20;;;;;;;21.93;17.50;;;8.00;99.90;;;;;;5115244;28;20217;-76
2022/11/16 10:42:57;;;;;;;19.13;16.47;;;8.00;99.90;;;;;;5116597;28;20209;-74
2022/11/16 10:45:32;;;;;;;20.17;17.87;;;8.00;99.90;;;;;;5115561;28;20193;-79
2022/11/16 10:48:15;;;;;;;19.83;16.63;;;8.10;99.90;;;;;;5117350;28;20675;-73
2022/11/16 10:50:47;;;;;;;18.90;16.63;;;8.10;99.90;;;;;;5122010;27;20577;-76
2022/11/16 10:53:28;;;;;;;19.97;16.53;;;8.20;99.90;;;;;;5113626;27;20703;-77
2022/11/16 10:56:18;;;;;;;19.90;16.20;;;8.20;99.90;;;;;;5114371;28;20205;-77
2022/11/16 10:58:51;;;;;;;18.60;15.53;;;8.20;99.90;;;;;;5112316;28;20664;-77
2022/11/16 11:01:37;;;;;;;19.10;15.23;;;8.20;99.90;;;;;;5114809;27;20210;-75
2022/11/16 11:04:17;;;;;;;21.13;15.30;;;8.40;99.90;;;;;;5114355;27;20209;-76
2022/11/16 11:06:50;;;;;;;19.90;15.77;;;8.40;99.90;;;;;;5124904;27;20209;-76
2022/11/16 11:09:51;;;;;;;19.23;15.50;;;8.40;99.90;;;;;;5135864;27;20686;-79
2022/11/16 11:12:39;;;;;;;19.43;16.60;;;8.40;99.90;;;;;;5114152;27;20622;-77
2022/11/16 11:15:22;;;;;;;18.00;15.67;;;8.40;99.90;;;;;;5118042;27;20537;-78
2022/11/16 11:18:19;;;;;;;20.87;16.07;;;8.40;99.90;;;;;;5112725;27;20676;-78
2022/11/16 11:20:49;;;;;;;20.13;15.73;;;8.40;99.90;;;;;;5116469;27;20247;-79
2022/11/16 11:23:23;;;;;;;22.17;16.07;;;8.40;99.90;;;;;;5115223;27;20556;-79
2022/11/16 11:25:55;;;;;;;18.40;15.63;;;8.40;99.90;;;;;;5114971;27;20210;-77
2022/11/16 11:28:28;;;;;;;20.40;16.67;;;8.40;99.90;;;;;;5115592;27;20562;-77
2022/11/16 11:31:00;;;;;;;21.87;16.73;;;8.30;99.90;;;;;;5132223;27;20214;-78
2022/11/16 11:33:32;;;;;;;21.93;17.23;;;8.40;99.90;;;;;;5113472;27;20668;-76
2022/11/16 11:36:05;;;;;;;19.60;17.13;;;8.30;99.90;;;;;;5112953;28;20251;-76
2022/11/16 11:38:34;;;;;;;20.10;17.70;;;8.30;99.90;;;;;;5114088;28;20195;-79
2022/11/16 11:41:18;;;;;;;21.37;16.90;;;8.30;99.90;;;;;;5116083;27;20235;-78
2022/11/16 11:44:02;;;;;;;21.83;18.03;;;8.30;99.90;;;;;;5125325;27;20648;-77
2022/11/16 11:46:37;;;;;;;24.97;19.07;;;8.40;99.90;;;;;;5104218;27;20284;-76
2022/11/16 11:49:31;;;;;;;22.93;17.77;;;8.40;99.90;;;;;;5114458;27;20230;-78
2022/11/16 11:52:09;;;;;;;23.10;17.03;;;8.50;99.90;;;;;;5113462;28;20217;-78
2022/11/16 11:54:47;;;;;;;22.20;18.03;;;8.50;99.90;;;;;;5113638;27;20292;-77
2022/11/16 11:57:22;;;;;;;22.33;18.57;;;8.50;99.90;;;;;;5113572;28;20189;-78
2022/11/16 11:59:53;;;;;;;21.53;17.33;;;8.50;99.90;;;;;;5113938;27;20194;-78
2022/11/16 12:02:42;;;;;;;21.13;17.63;;;8.50;99.90;;;;;;5112834;27;20695;-78
2022/11/16 12:05:45;;;;;;;20.90;17.57;;;8.60;99.90;;;;;;5114052;28;20247;-77
2022/11/16 12:08:35;;;;;;;25.97;18.60;;;8.50;99.90;;;;;;5113095;27;20224;-77
2022/11/16 12:11:08;;;;;;;26.03;19.90;;;8.50;99.90;;;;;;5113454;27;20754;-77
2022/11/16 12:13:56;;;;;;;25.30;21.17;;;8.60;99.90;;;;;;5113879;28;20651;-74
2022/11/16 12:16:32;;;;;;;24.47;20.23;;;8.60;99.90;;;;;;5104789;27;20289;-78
2022/11/16 12:19:29;;;;;;;22.53;18.63;;;8.60;99.90;;;;;;5116452;27;20465;-74
2022/11/16 12:22:07;;;;;;;23.00;17.77;;;8.70;99.90;;;;;;5130425;27;20768;-76
2022/11/16 12:24:51;;;;;;;21.50;17.30;;;8.70;99.90;;;;;;5120574;27;20203;-77
2022/11/16 12:27:28;;;;;;;21.50;16.83;;;8.70;99.90;;;;;;5113995;27;20275;-77
2022/11/16 12:30:07;;;;;;;24.07;19.60;;;8.80;99.90;;;;;;5114137;27;20209;-76
2022/11/16 12:32:56;;;;;;;27.20;21.33;;;8.90;99.90;;;;;;5112355;28;20219;-76
2022/11/16 12:35:49;;;;;;;24.73;20.20;;;8.90;99.90;;;;;;5113142;28;20186;-76
2022/11/16 12:38:36;;;;;;;22.30;18.07;;;8.90;99.90;;;;;;5119069;27;20210;-79
2022/11/16 12:41:43;;;;;;;17.87;15.40;;;8.90;99.90;;;;;;5112156;28;20190;-77
2022/11/16 12:44:27;;;;;;;18.73;15.63;;;9.00;99.90;;;;;;5046040;28;20302;-80
2022/11/16 12:47:07;;;;;;;18.20;15.97;;;9.00;99.90;;;;;;5112669;28;20194;-74
2022/11/16 12:49:53;;;;;;;18.67;15.87;;;9.00;99.90;;;;;;5109701;27;20237;-79
2022/11/16 12:52:46;;;;;;;15.67;13.77;;;9.10;99.90;;;;;;5111811;28;20207;-76
2022/11/16 12:55:22;;;;;;;16.70;14.47;;;9.30;99.90;;;;;;5111794;27;20199;-78
2022/11/16 12:58:10;;;;;;;18.03;13.60;;;9.30;99.90;;;;;;5111885;28;20598;-78
2022/11/16 13:00:55;;;;;;;14.20;12.70;;;9.40;99.90;;;;;;5118292;27;20208;-78
2022/11/16 13:03:35;;;;;;;16.33;13.50;;;9.40;99.90;;;;;;5115033;27;20615;-76
2022/11/16 13:06:09;;;;;;;14.37;12.87;;;9.40;99.90;;;;;;5108239;27;20834;-77
2022/11/16 13:08:47;;;;;;;15.97;14.30;;;9.50;99.90;;;;;;5120533;27;20203;-79
2022/11/16 13:11:20;;;;;;;17.87;14.90;;;9.40;99.90;;;;;;5121727;27;20241;-76
2022/11/16 13:13:51;;;;;;;17.30;15.13;;;9.40;99.90;;;;;;5126996;27;20619;-76
2022/11/16 13:16:24;;;;;;;27.63;24.83;;;9.30;99.90;;;;;;5110404;27;20213;-76
2022/11/16 13:18:55;;;;;;;20.17;18.03;;;9.30;99.90;;;;;;5131886;27;20216;-76
2022/11/16 13:21:33;;;;;;;16.50;14.80;;;9.30;99.90;;;;;;5120552;27;20233;-75
2022/11/16 13:24:25;;;;;;;16.67;14.63;;;9.20;99.90;;;;;;5117305;27;20196;-79
2022/11/16 13:27:01;;;;;;;20.53;18.17;;;9.20;99.90;;;;;;5121041;27;20206;-75
2022/11/16 13:29:36;;;;;;;17.90;15.10;;;9.30;99.90;;;;;;5111708;28;20245;-75
2022/11/16 13:32:09;;;;;;;17.93;15.90;;;9.30;99.90;;;;;;5111267;28;20242;-77
2022/11/16 13:34:41;;;;;;;17.20;14.87;;;9.30;99.90;;;;;;5112101;28;20187;-77
2022/11/16 13:37:46;;;;;;;15.10;13.60;;;9.40;99.90;;;;;;5112141;28;20194;-80
2022/11/16 13:40:24;;;;;;;16.93;15.00;;;9.50;99.90;;;;;;5113493;28;20202;-75
2022/11/16 13:43:08;;;;;;;19.77;17.63;;;9.50;99.90;;;;;;5116262;28;20289;-76
2022/11/16 13:45:42;;;;;;;19.13;16.93;;;9.50;99.90;;;;;;5115440;27;20202;-78
2022/11/16 13:48:18;;;;;;;20.40;16.97;;;9.60;99.90;;;;;;5114586;28;20486;-75
2022/11/16 13:50:54;;;;;;;17.47;15.63;;;9.60;99.90;;;;;;5115337;28;20214;-74
2022/11/16 13:53:28;;;;;;;18.30;14.07;;;9.70;99.90;;;;;;5116978;27;20293;-77